createdAt,value
2017-09-10T00:02:03.788Z,4.40
2017-09-10T00:04:30.834Z,4.43
2017-09-10T00:06:57.867Z,4.40
2017-09-10T00:09:25.164Z,4.20
2017-09-10T00:11:51.437Z,4.20
2017-09-10T00:14:17.687Z,4.70
2017-09-10T00:16:44.701Z,5.07
2017-09-10T00:19:10.965Z,4.50
2017-09-10T00:21:37.260Z,4.77
2017-09-10T00:24:03.587Z,4.60
2017-09-10T00:26:29.857Z,4.80
2017-09-10T00:28:56.873Z,4.70
2017-09-10T00:31:23.185Z,4.60
2017-09-10T00:33:49.457Z,4.63
2017-09-10T00:36:15.736Z,4.50
2017-09-10T00:38:41.997Z,4.70
2017-09-10T00:41:08.272Z,5.07
2017-09-10T00:43:34.551Z,4.23
2017-09-10T00:46:00.816Z,4.30
2017-09-10T00:48:27.102Z,5.00
2017-09-10T00:50:53.402Z,5.37
2017-09-10T00:53:19.695Z,5.17
2017-09-10T00:55:45.990Z,5.03
2017-09-10T00:58:12.289Z,5.27
2017-09-10T01:00:38.544Z,5.40
2017-09-10T01:03:04.833Z,5.87
2017-09-10T01:05:31.126Z,5.47
2017-09-10T01:07:58.186Z,4.93
2017-09-10T01:10:25.205Z,5.40
2017-09-10T01:12:51.475Z,5.30
2017-09-10T01:15:17.752Z,5.47
2017-09-10T01:17:44.040Z,6.00
2017-09-10T01:20:10.320Z,5.73
2017-09-10T01:22:36.612Z,5.80
2017-09-10T01:25:03.876Z,5.73
2017-09-10T01:27:30.153Z,6.10
2017-09-10T01:29:57.311Z,6.70
2017-09-10T01:32:24.330Z,6.33
2017-09-10T01:34:50.605Z,6.37
2017-09-10T01:37:16.866Z,6.80
2017-09-10T01:39:43.145Z,6.67
2017-09-10T01:42:10.157Z,7.37
2017-09-10T01:44:36.431Z,6.60
2017-09-10T01:47:02.689Z,7.10
2017-09-10T01:49:28.957Z,7.17
2017-09-10T01:51:55.986Z,6.83
2017-09-10T01:54:22.248Z,6.93
2017-09-10T01:56:49.257Z,6.97
2017-09-10T01:59:15.532Z,7.17
2017-09-10T02:01:42.534Z,6.87
2017-09-10T02:04:08.813Z,6.00
2017-09-10T02:06:35.078Z,5.97
2017-09-10T02:09:01.600Z,7.27
2017-09-10T02:11:27.913Z,5.80
2017-09-10T02:13:54.185Z,5.57
2017-09-10T02:16:20.788Z,6.33
2017-09-10T02:18:47.063Z,5.67
2017-09-10T02:21:13.316Z,5.63
2017-09-10T02:23:40.304Z,5.90
2017-09-10T02:26:06.564Z,7.03
2017-09-10T02:28:32.851Z,6.47
2017-09-10T02:30:59.121Z,6.20
2017-09-10T02:33:25.383Z,7.10
2017-09-10T02:35:52.397Z,6.93
2017-09-10T02:38:18.678Z,6.10
2017-09-10T02:40:44.986Z,6.57
2017-09-10T02:43:11.989Z,7.10
2017-09-10T02:45:38.265Z,6.23
2017-09-10T02:48:05.276Z,6.20
2017-09-10T02:50:31.536Z,6.57
2017-09-10T02:52:58.549Z,6.17
2017-09-10T02:55:24.816Z,6.60
2017-09-10T02:57:51.826Z,6.30
2017-09-10T03:00:18.131Z,6.20
2017-09-10T03:02:44.429Z,7.03
2017-09-10T03:05:10.717Z,6.20
2017-09-10T03:07:36.980Z,6.10
2017-09-10T03:10:03.970Z,6.80
2017-09-10T03:12:30.220Z,7.67
2017-09-10T03:14:56.478Z,7.40
2017-09-10T03:17:23.488Z,7.60
2017-09-10T03:19:49.814Z,7.80
2017-09-10T03:22:16.083Z,7.00
2017-09-10T03:24:42.354Z,6.83
2017-09-10T03:27:08.636Z,6.77
2017-09-10T03:29:35.636Z,5.97
2017-09-10T03:32:01.904Z,6.30
2017-09-10T03:34:28.916Z,5.83
2017-09-10T03:36:55.176Z,5.80
2017-09-10T03:39:21.428Z,5.60
2017-09-10T03:41:48.443Z,6.23
2017-09-10T03:44:14.757Z,5.80
2017-09-10T03:46:41.025Z,5.87
2017-09-10T03:49:08.039Z,6.27
2017-09-10T03:51:34.306Z,5.73
2017-09-10T03:54:01.327Z,6.20
2017-09-10T03:56:27.594Z,6.73
2017-09-10T03:58:53.857Z,7.97
2017-09-10T04:01:20.110Z,6.77
2017-09-10T04:03:47.150Z,7.23
2017-09-10T04:06:13.462Z,6.70
2017-09-10T04:08:39.725Z,6.90
2017-09-10T04:11:05.991Z,7.53
2017-09-10T04:13:32.251Z,6.93
2017-09-10T04:15:58.565Z,6.90
2017-09-10T04:18:24.859Z,6.20
2017-09-10T04:20:51.140Z,6.40
2017-09-10T04:23:17.419Z,6.50
2017-09-10T04:25:44.452Z,6.00
2017-09-10T04:28:11.489Z,6.73
2017-09-10T04:30:37.761Z,7.50
2017-09-10T04:33:04.056Z,6.20
2017-09-10T04:35:31.111Z,6.00
2017-09-10T04:37:58.140Z,6.07
2017-09-10T04:40:24.443Z,6.57
2017-09-10T04:42:50.736Z,6.27
2017-09-10T04:45:17.061Z,6.60
2017-09-10T04:47:43.355Z,6.70
2017-09-10T04:50:09.635Z,6.50
2017-09-10T04:52:35.911Z,6.70
2017-09-10T04:55:02.961Z,7.20
2017-09-10T04:57:29.257Z,6.63
2017-09-10T04:59:55.553Z,6.93
2017-09-10T05:02:21.856Z,7.00
2017-09-10T05:04:48.901Z,7.17
2017-09-10T05:07:15.953Z,7.53
2017-09-10T05:09:42.244Z,7.63
2017-09-10T05:12:08.552Z,7.70
2017-09-10T05:14:34.859Z,7.30
2017-09-10T05:17:02.790Z,7.70
2017-09-10T05:19:29.814Z,7.80
2017-09-10T05:21:56.126Z,8.63
2017-09-10T05:24:22.417Z,8.20
2017-09-10T05:26:49.460Z,8.40
2017-09-10T05:29:15.772Z,9.80
2017-09-10T05:31:42.100Z,9.23
2017-09-10T05:34:09.177Z,8.63
2017-09-10T05:36:36.260Z,9.30
2017-09-10T05:39:02.635Z,9.67
2017-09-10T05:41:29.453Z,9.00
2017-09-10T05:43:55.860Z,10.87
2017-09-10T05:46:22.224Z,9.97
2017-09-10T05:48:49.356Z,9.87
2017-09-10T05:51:15.701Z,10.30
2017-09-10T05:53:41.994Z,9.90
2017-09-10T05:56:08.491Z,10.20
2017-09-10T05:58:36.279Z,10.97
2017-09-10T06:01:03.307Z,9.53
2017-09-10T06:03:29.728Z,9.53
2017-09-10T06:05:56.199Z,11.20
2017-09-10T06:08:22.649Z,10.43
2017-09-10T06:10:48.996Z,10.10
2017-09-10T06:13:16.085Z,11.00
2017-09-10T06:15:43.282Z,11.30
2017-09-10T06:18:09.706Z,12.10
2017-09-10T06:20:36.393Z,10.57
2017-09-10T06:23:03.583Z,11.50
2017-09-10T06:25:30.008Z,9.87
2017-09-10T06:28:03.524Z,8.60
2017-09-10T06:30:29.834Z,10.07
2017-09-10T06:32:56.906Z,9.30
2017-09-10T06:35:30.358Z,9.83
2017-09-10T06:37:56.652Z,10.03
2017-09-10T06:40:22.985Z,10.67
2017-09-10T06:42:49.272Z,10.00
2017-09-10T06:45:15.577Z,11.20
2017-09-10T06:47:41.873Z,11.00
2017-09-10T06:50:08.167Z,10.43
2017-09-10T06:52:34.453Z,11.67
2017-09-10T06:55:00.765Z,11.80
2017-09-10T06:57:27.084Z,10.43
2017-09-10T06:59:53.408Z,11.87
2017-09-10T07:02:19.714Z,11.93
2017-09-10T07:04:46.058Z,12.10
2017-09-10T07:07:12.391Z,13.23
2017-09-10T07:09:38.724Z,13.30
2017-09-10T07:12:04.996Z,13.70
2017-09-10T07:14:31.312Z,13.67
2017-09-10T07:16:57.579Z,12.80
2017-09-10T07:19:24.638Z,14.00
2017-09-10T07:21:51.705Z,13.43
2017-09-10T07:24:18.036Z,13.50
2017-09-10T07:26:44.679Z,13.33
2017-09-10T07:29:10.974Z,13.60
2017-09-10T07:31:37.981Z,14.20
2017-09-10T07:34:04.360Z,14.97
2017-09-10T07:36:31.383Z,14.97
2017-09-10T07:38:57.742Z,14.30
2017-09-10T07:41:24.792Z,14.30
2017-09-10T07:43:51.104Z,15.50
2017-09-10T07:46:17.423Z,13.23
2017-09-10T07:48:43.701Z,14.07
2017-09-10T07:51:10.008Z,14.90
2017-09-10T07:53:37.007Z,15.10
2017-09-10T07:56:03.308Z,15.13
2017-09-10T07:58:29.610Z,15.93
2017-09-10T08:00:56.638Z,14.00
2017-09-10T08:03:23.094Z,13.17
2017-09-10T08:05:49.372Z,13.43
2017-09-10T08:08:15.697Z,12.80
2017-09-10T08:10:41.995Z,12.90
2017-09-10T08:13:08.311Z,12.87
2017-09-10T08:15:35.336Z,11.30
2017-09-10T08:18:01.618Z,11.37
2017-09-10T08:20:27.901Z,9.93
2017-09-10T08:22:54.940Z,9.77
2017-09-10T08:25:21.981Z,10.00
2017-09-10T08:27:48.306Z,10.20
2017-09-10T08:30:15.346Z,10.00
2017-09-10T08:32:41.667Z,9.67
2017-09-10T08:35:07.961Z,10.27
2017-09-10T08:37:34.279Z,8.93
2017-09-10T08:40:00.573Z,8.20
2017-09-10T08:42:27.604Z,8.10
2017-09-10T08:44:53.929Z,7.47
2017-09-10T08:47:20.219Z,5.67
2017-09-10T08:49:46.520Z,6.57
2017-09-10T08:52:13.564Z,7.40
2017-09-10T08:54:40.587Z,7.60
2017-09-10T08:57:06.869Z,8.10
2017-09-10T08:59:33.157Z,8.00
2017-09-10T09:01:59.445Z,8.00
2017-09-10T09:04:25.726Z,7.80
2017-09-10T09:06:51.998Z,6.93
2017-09-10T09:09:18.332Z,7.47
2017-09-10T09:11:45.349Z,7.00
2017-09-10T09:14:12.364Z,6.37
2017-09-10T09:16:38.648Z,6.73
2017-09-10T09:19:04.967Z,7.10
2017-09-10T09:21:31.257Z,6.40
2017-09-10T09:23:57.543Z,5.50
2017-09-10T09:26:23.824Z,5.97
2017-09-10T09:28:51.045Z,7.33
2017-09-10T09:31:17.356Z,6.80
2017-09-10T09:33:43.637Z,5.80
2017-09-10T09:36:09.911Z,5.43
2017-09-10T09:38:36.186Z,5.60
2017-09-10T09:41:02.478Z,5.23
2017-09-10T09:43:28.787Z,6.43
2017-09-10T09:45:55.065Z,4.70
2017-09-10T09:48:22.207Z,3.80
2017-09-10T09:50:48.525Z,4.50
2017-09-10T09:53:14.827Z,4.30
2017-09-10T09:55:41.122Z,4.37
2017-09-10T09:58:07.404Z,4.10
2017-09-10T10:00:33.691Z,4.87
2017-09-10T10:03:00.734Z,3.90
2017-09-10T10:05:27.765Z,3.77
2017-09-10T10:07:54.834Z,4.00
2017-09-10T10:10:21.228Z,3.80
2017-09-10T10:12:47.527Z,4.53
2017-09-10T10:15:14.064Z,3.90
2017-09-10T10:17:40.406Z,4.80
2017-09-10T10:20:06.703Z,5.47
2017-09-10T10:22:33.013Z,4.37
2017-09-10T10:25:00.066Z,4.00
2017-09-10T10:27:27.143Z,4.10
2017-09-10T10:29:55.808Z,4.50
2017-09-10T10:32:24.436Z,4.73
2017-09-10T10:34:54.420Z,5.20
2017-09-10T10:37:21.447Z,4.90
2017-09-10T10:39:47.743Z,4.37
2017-09-10T10:42:14.847Z,3.70
2017-09-10T10:44:41.240Z,4.00
2017-09-10T10:47:08.384Z,3.90
2017-09-10T10:49:34.752Z,4.33
2017-09-10T10:52:01.090Z,3.87
2017-09-10T10:54:27.491Z,3.70
2017-09-10T10:56:55.531Z,3.30
2017-09-10T10:59:21.823Z,3.80
2017-09-10T11:01:48.189Z,4.07
2017-09-10T11:04:14.528Z,4.20
2017-09-10T11:06:40.960Z,3.30
2017-09-10T11:09:08.350Z,3.60
2017-09-10T11:11:35.497Z,3.40
2017-09-10T11:14:02.745Z,3.50
2017-09-10T11:16:29.029Z,3.80
2017-09-10T11:18:55.361Z,3.30
2017-09-10T11:21:21.764Z,3.23
2017-09-10T11:23:48.135Z,3.57
2017-09-10T11:26:14.452Z,3.60
2017-09-10T11:28:41.625Z,3.40
2017-09-10T11:31:08.628Z,3.90
2017-09-10T11:33:35.745Z,3.60
2017-09-10T11:36:02.781Z,3.33
2017-09-10T11:38:29.144Z,3.73
2017-09-10T11:40:55.449Z,3.70
2017-09-10T11:43:21.756Z,4.13
2017-09-10T11:45:48.125Z,3.83
2017-09-10T11:48:14.465Z,3.93
2017-09-10T11:50:40.765Z,4.10
2017-09-10T11:53:08.621Z,3.90
2017-09-10T11:55:34.948Z,4.53
2017-09-10T11:58:01.986Z,4.33
2017-09-10T12:00:28.333Z,3.93
2017-09-10T12:02:54.729Z,4.50
2017-09-10T12:05:21.101Z,4.60
2017-09-10T12:07:47.448Z,4.07
2017-09-10T12:10:13.788Z,5.00
2017-09-10T12:12:40.107Z,4.80
2017-09-10T12:15:06.420Z,4.80
2017-09-10T12:17:32.750Z,4.50
2017-09-10T12:19:59.038Z,4.60
2017-09-10T12:22:25.354Z,4.37
2017-09-10T12:24:51.642Z,4.70
2017-09-10T12:27:17.980Z,4.27
2017-09-10T12:29:44.328Z,3.70
2017-09-10T12:32:10.641Z,3.60
2017-09-10T12:34:37.885Z,4.13
2017-09-10T12:37:04.993Z,4.00
2017-09-10T12:39:32.087Z,4.80
2017-09-10T12:41:59.129Z,3.50
2017-09-10T12:44:26.220Z,3.20
2017-09-10T12:46:52.572Z,3.33
2017-09-10T12:49:18.869Z,3.50
2017-09-10T12:51:45.193Z,3.20
2017-09-10T12:54:12.593Z,3.80
2017-09-10T12:56:38.922Z,3.43
2017-09-10T12:59:05.999Z,3.20
2017-09-10T13:01:34.289Z,3.40
2017-09-10T13:04:01.593Z,3.47
2017-09-10T13:06:27.900Z,3.67
2017-09-10T13:08:54.288Z,3.50
2017-09-10T13:11:20.603Z,3.40
2017-09-10T13:13:47.020Z,3.47
2017-09-10T13:16:13.329Z,3.37
2017-09-10T13:18:40.347Z,3.20
2017-09-10T13:21:07.292Z,3.30
2017-09-10T13:23:33.658Z,3.63
2017-09-10T13:25:59.950Z,2.80
2017-09-10T13:28:26.265Z,2.90
2017-09-10T13:30:54.867Z,2.83
2017-09-10T13:33:21.240Z,3.03
2017-09-10T13:35:47.593Z,3.30
2017-09-10T13:38:13.947Z,3.50
2017-09-10T13:40:41.266Z,3.60
2017-09-10T13:43:07.563Z,3.07
2017-09-10T13:45:33.903Z,2.57
2017-09-10T13:48:00.368Z,3.40
2017-09-10T13:50:26.689Z,2.47
2017-09-10T13:52:53.014Z,2.70
2017-09-10T13:55:20.303Z,2.67
2017-09-10T13:57:46.841Z,2.60
2017-09-10T14:00:13.184Z,2.60
2017-09-10T14:02:40.448Z,2.53
2017-09-10T14:05:06.757Z,2.60
2017-09-10T14:07:33.794Z,2.50
2017-09-10T14:10:00.883Z,2.43
2017-09-10T14:12:27.215Z,2.33
2017-09-10T14:14:53.535Z,2.30
2017-09-10T14:17:20.542Z,2.40
2017-09-10T14:19:48.473Z,2.50
2017-09-10T14:22:14.768Z,2.77
2017-09-10T14:24:41.802Z,2.53
2017-09-10T14:27:08.134Z,2.73
2017-09-10T14:29:36.809Z,2.50
2017-09-10T14:32:05.677Z,2.43
2017-09-10T14:34:33.902Z,2.50
2017-09-10T14:37:03.777Z,2.47
2017-09-10T14:39:30.056Z,2.23
2017-09-10T14:41:57.009Z,2.20
2017-09-10T14:44:23.559Z,1.80
2017-09-10T14:46:49.831Z,2.07
2017-09-10T14:49:16.122Z,2.23
2017-09-10T14:51:42.415Z,1.83
2017-09-10T14:54:08.773Z,2.07
2017-09-10T14:56:35.999Z,2.10
2017-09-10T14:59:03.622Z,1.90
2017-09-10T15:01:30.713Z,1.77
2017-09-10T15:03:57.024Z,1.90
2017-09-10T15:06:25.080Z,2.10
2017-09-10T15:08:54.173Z,2.00
2017-09-10T15:11:20.469Z,2.37
2017-09-10T15:13:46.804Z,1.80
2017-09-10T15:16:12.961Z,1.77
2017-09-10T15:18:39.265Z,1.87
2017-09-10T15:21:05.583Z,1.90
2017-09-10T15:23:31.875Z,1.93
2017-09-10T15:25:58.914Z,1.80
2017-09-10T15:28:26.788Z,2.07
2017-09-10T15:30:53.829Z,1.73
2017-09-10T15:33:20.842Z,1.80
2017-09-10T15:35:47.125Z,2.13
2017-09-10T15:38:14.134Z,1.60
2017-09-10T15:40:41.163Z,2.20
2017-09-10T15:43:07.451Z,2.50
2017-09-10T15:45:33.734Z,2.60
2017-09-10T15:48:00.019Z,2.10
2017-09-10T15:50:26.659Z,2.00
2017-09-10T15:52:52.940Z,2.17
2017-09-10T15:55:20.019Z,2.37
2017-09-10T15:57:46.329Z,2.30
2017-09-10T16:00:12.781Z,2.70
2017-09-10T16:02:39.209Z,2.63
2017-09-10T16:05:06.059Z,2.50
2017-09-10T16:07:33.357Z,2.93
2017-09-10T16:09:59.659Z,2.73
2017-09-10T16:12:25.949Z,2.70
2017-09-10T16:14:53.023Z,3.20
2017-09-10T16:17:19.327Z,3.00
2017-09-10T16:19:46.352Z,3.00
2017-09-10T16:22:12.944Z,2.93
2017-09-10T16:24:39.255Z,3.10
2017-09-10T16:27:06.280Z,3.50
2017-09-10T16:29:33.304Z,2.93
2017-09-10T16:31:59.628Z,2.60
2017-09-10T16:34:25.928Z,3.00
2017-09-10T16:36:52.273Z,2.60
2017-09-10T16:39:18.583Z,2.47
2017-09-10T16:41:44.873Z,2.40
2017-09-10T16:44:11.169Z,2.57
2017-09-10T16:46:37.475Z,2.30
2017-09-10T16:49:03.788Z,2.50
2017-09-10T16:51:30.140Z,2.37
2017-09-10T16:53:56.450Z,2.70
2017-09-10T16:56:22.797Z,2.23
2017-09-10T16:58:49.128Z,2.77
2017-09-10T17:01:15.435Z,2.30
2017-09-10T17:03:41.740Z,2.73
2017-09-10T17:06:08.803Z,2.77
2017-09-10T17:08:35.146Z,2.90
2017-09-10T17:11:01.436Z,2.83
2017-09-10T17:13:27.737Z,2.77
2017-09-10T17:15:54.070Z,3.03
2017-09-10T17:18:20.339Z,3.47
2017-09-10T17:20:47.372Z,3.20
2017-09-10T17:23:13.710Z,3.27
2017-09-10T17:25:39.994Z,3.33
2017-09-10T17:28:06.335Z,3.13
2017-09-10T17:30:32.606Z,3.60
2017-09-10T17:32:59.018Z,3.57
2017-09-10T17:35:25.348Z,3.80
2017-09-10T17:37:51.633Z,3.37
2017-09-10T17:40:17.912Z,3.13
2017-09-10T17:42:44.203Z,3.83
2017-09-10T17:45:10.493Z,3.90
2017-09-10T17:47:37.540Z,3.50
2017-09-10T17:50:04.569Z,3.60
2017-09-10T17:52:31.597Z,4.10
2017-09-10T17:54:58.097Z,4.70
2017-09-10T17:57:24.512Z,4.20
2017-09-10T17:59:51.550Z,3.93
2017-09-10T18:02:17.879Z,4.10
2017-09-10T18:04:44.963Z,3.97
2017-09-10T18:07:11.335Z,4.30
2017-09-10T18:09:37.781Z,3.90
2017-09-10T18:12:04.823Z,3.87
2017-09-10T18:14:31.909Z,3.93
2017-09-10T18:16:58.249Z,4.27
2017-09-10T18:19:24.735Z,4.20
2017-09-10T18:21:51.139Z,4.13
2017-09-10T18:24:17.433Z,4.17
2017-09-10T18:26:43.763Z,4.50
2017-09-10T18:29:10.048Z,4.30
2017-09-10T18:31:36.329Z,4.50
2017-09-10T18:34:02.629Z,4.50
2017-09-10T18:36:29.182Z,4.40
2017-09-10T18:38:55.483Z,4.50
2017-09-10T18:41:21.781Z,4.40
2017-09-10T18:43:48.034Z,4.37
2017-09-10T18:46:14.309Z,4.13
2017-09-10T18:48:40.585Z,4.10
2017-09-10T18:51:06.898Z,4.40
2017-09-10T18:53:33.159Z,4.60
2017-09-10T18:55:59.442Z,4.30
2017-09-10T18:58:25.751Z,4.50
2017-09-10T19:00:52.041Z,4.43
2017-09-10T19:03:18.342Z,4.50
2017-09-10T19:05:44.684Z,3.67
2017-09-10T19:08:10.961Z,4.87
2017-09-10T19:10:37.220Z,4.60
2017-09-10T19:13:03.499Z,4.87
2017-09-10T19:15:30.857Z,4.63
2017-09-10T19:17:57.124Z,4.80
2017-09-10T19:20:23.496Z,5.07
2017-09-10T19:22:50.400Z,4.23
2017-09-10T19:25:16.837Z,5.10
2017-09-10T19:27:43.132Z,4.40
2017-09-10T19:30:10.134Z,5.00
2017-09-10T19:32:36.393Z,4.27
2017-09-10T19:35:03.406Z,5.07
2017-09-10T19:37:29.737Z,5.30
2017-09-10T19:39:56.019Z,4.90
2017-09-10T19:42:23.016Z,5.20
2017-09-10T19:44:49.269Z,4.90
2017-09-10T19:47:16.484Z,4.77
2017-09-10T19:49:42.924Z,4.50
2017-09-10T19:52:09.255Z,3.83
2017-09-10T19:54:35.612Z,3.63
2017-09-10T19:57:02.731Z,3.73
2017-09-10T19:59:29.515Z,3.90
2017-09-10T20:01:56.234Z,3.90
2017-09-10T20:04:22.653Z,3.30
2017-09-10T20:06:49.191Z,3.60
2017-09-10T20:09:15.597Z,3.70
2017-09-10T20:11:41.885Z,3.10
2017-09-10T20:14:08.330Z,3.43
2017-09-10T20:16:34.621Z,3.37
2017-09-10T20:19:01.173Z,3.30
2017-09-10T20:21:27.654Z,3.70
2017-09-10T20:23:54.118Z,3.40
2017-09-10T20:26:20.509Z,3.30
2017-09-10T20:28:46.869Z,3.00
2017-09-10T20:31:13.208Z,2.80
2017-09-10T20:33:40.425Z,3.40
2017-09-10T20:36:06.793Z,3.50
2017-09-10T20:38:33.401Z,3.03
2017-09-10T20:40:59.755Z,3.80
2017-09-10T20:43:26.117Z,3.27
2017-09-10T20:45:52.435Z,3.23
2017-09-10T20:48:18.809Z,3.70
2017-09-10T20:50:46.199Z,3.63
2017-09-10T20:53:12.549Z,2.73
2017-09-10T20:55:39.745Z,3.90
2017-09-10T20:58:06.118Z,3.40
2017-09-10T21:00:32.442Z,3.10
2017-09-10T21:02:59.569Z,4.10
2017-09-10T21:05:26.743Z,3.20
2017-09-10T21:07:53.117Z,3.43
2017-09-10T21:10:19.419Z,3.17
2017-09-10T21:12:45.805Z,3.33
2017-09-10T21:15:12.281Z,3.40
2017-09-10T21:17:38.613Z,3.40
2017-09-10T21:20:04.892Z,3.37
2017-09-10T21:22:31.153Z,3.70
2017-09-10T21:24:57.419Z,3.90
2017-09-10T21:27:23.816Z,3.20
2017-09-10T21:29:50.167Z,3.40
2017-09-10T21:32:16.461Z,3.83
2017-09-10T21:34:42.798Z,3.73
2017-09-10T21:37:09.104Z,3.20
2017-09-10T21:39:35.425Z,3.50
2017-09-10T21:42:02.547Z,3.73
2017-09-10T21:44:28.977Z,3.27
2017-09-10T21:46:56.054Z,3.50
2017-09-10T21:49:22.373Z,3.70
2017-09-10T21:51:48.650Z,3.80
2017-09-10T21:54:14.920Z,3.70
2017-09-10T21:56:42.040Z,3.67
2017-09-10T21:59:09.138Z,3.43
2017-09-10T22:01:35.450Z,3.73
2017-09-10T22:04:02.544Z,3.77
2017-09-10T22:06:28.869Z,3.60
2017-09-10T22:08:55.339Z,3.37
2017-09-10T22:11:22.388Z,3.63
2017-09-10T22:13:48.788Z,4.20
2017-09-10T22:16:15.863Z,3.60
2017-09-10T22:18:42.312Z,3.90
2017-09-10T22:21:09.671Z,3.80
2017-09-10T22:23:36.068Z,3.87
2017-09-10T22:26:02.523Z,3.27
2017-09-10T22:28:29.042Z,4.03
2017-09-10T22:30:55.476Z,3.30
2017-09-10T22:33:22.706Z,3.37
2017-09-10T22:35:49.159Z,3.43
2017-09-10T22:38:15.690Z,3.47
2017-09-10T22:40:41.985Z,3.00
2017-09-10T22:43:08.281Z,3.20
2017-09-10T22:45:35.313Z,3.17
2017-09-10T22:48:01.631Z,3.30
2017-09-10T22:50:28.859Z,3.43
2017-09-10T22:52:55.228Z,2.83
2017-09-10T22:55:22.276Z,2.90
2017-09-10T22:57:49.997Z,3.00
2017-09-10T23:00:16.635Z,3.10
2017-09-10T23:02:43.827Z,2.70
2017-09-10T23:05:10.117Z,3.10
2017-09-10T23:07:36.388Z,2.70
2017-09-10T23:10:02.735Z,3.17
2017-09-10T23:12:29.787Z,3.17
2017-09-10T23:14:56.820Z,2.90
2017-09-10T23:17:23.105Z,2.77
2017-09-10T23:19:49.394Z,2.90
2017-09-10T23:22:16.415Z,2.50
2017-09-10T23:24:43.451Z,2.70
2017-09-10T23:27:09.730Z,3.03
2017-09-10T23:29:36.724Z,2.80
2017-09-10T23:32:03.029Z,2.90
2017-09-10T23:34:29.316Z,2.90
2017-09-10T23:36:56.333Z,3.13
2017-09-10T23:39:22.591Z,2.37
2017-09-10T23:41:49.624Z,2.83
2017-09-10T23:44:15.891Z,2.70
2017-09-10T23:46:42.160Z,2.70
2017-09-10T23:49:08.432Z,2.80
2017-09-10T23:51:34.746Z,3.27
2017-09-10T23:54:01.032Z,2.73
2017-09-10T23:56:27.312Z,3.30
2017-09-10T23:58:54.323Z,2.70
